sensor_id;sensor_type;location;lat;lon;timestamp;P1;durP1;ratioP1;P2;durP2;ratioP2
32138;SDS011;18644;48.700;9.210;2023-12-29T00:00:15;1.63;;;1.15;;
32138;SDS011;18644;48.700;9.210;2023-12-29T00:02:44;3.65;;;1.15;;
32138;SDS011;18644;48.700;9.210;2023-12-29T00:05:11;0.88;;;0.80;;
32138;SDS011;18644;48.700;9.210;2023-12-29T00:07:37;2.75;;;1.10;;
32138;SDS011;18644;48.700;9.210;2023-12-29T00:10:05;1.92;;;1.00;;
32138;SDS011;18644;48.700;9.210;2023-12-29T00:12:34;1.00;;;1.00;;
32138;SDS011;18644;48.700;9.210;2023-12-29T00:15:00;1.80;;;1.30;;
32138;SDS011;18644;48.700;9.210;2023-12-29T00:17:27;2.47;;;1.58;;
32138;SDS011;18644;48.700;9.210;2023-12-29T00:19:56;0.95;;;0.95;;
32138;SDS011;18644;48.700;9.210;2023-12-29T00:22:23;2.28;;;1.20;;
32138;SDS011;18644;48.700;9.210;2023-12-29T00:24:52;1.98;;;1.35;;
32138;SDS011;18644;48.700;9.210;2023-12-29T00:27:19;1.20;;;1.08;;
32138;SDS011;18644;48.700;9.210;2023-12-29T00:29:46;1.05;;;0.98;;
32138;SDS011;18644;48.700;9.210;2023-12-29T00:32:13;2.08;;;1.33;;
32138;SDS011;18644;48.700;9.210;2023-12-29T00:34:40;1.30;;;1.20;;
32138;SDS011;18644;48.700;9.210;2023-12-29T00:37:08;1.98;;;1.27;;
32138;SDS011;18644;48.700;9.210;2023-12-29T00:39:34;2.17;;;1.23;;
32138;SDS011;18644;48.700;9.210;2023-12-29T00:42:05;1.98;;;1.20;;
32138;SDS011;18644;48.700;9.210;2023-12-29T00:44:32;2.67;;;1.60;;
32138;SDS011;18644;48.700;9.210;2023-12-29T00:46:59;1.58;;;1.30;;
32138;SDS011;18644;48.700;9.210;2023-12-29T00:49:26;1.77;;;1.40;;
32138;SDS011;18644;48.700;9.210;2023-12-29T00:51:53;1.48;;;1.25;;
32138;SDS011;18644;48.700;9.210;2023-12-29T00:54:21;1.10;;;1.00;;
32138;SDS011;18644;48.700;9.210;2023-12-29T00:56:48;1.85;;;1.20;;
32138;SDS011;18644;48.700;9.210;2023-12-29T00:59:15;1.23;;;1.10;;
32138;SDS011;18644;48.700;9.210;2023-12-29T01:01:44;1.67;;;1.17;;
32138;SDS011;18644;48.700;9.210;2023-12-29T01:04:11;2.50;;;1.42;;
32138;SDS011;18644;48.700;9.210;2023-12-29T01:06:38;2.45;;;1.35;;
32138;SDS011;18644;48.700;9.210;2023-12-29T01:09:05;1.35;;;1.25;;
32138;SDS011;18644;48.700;9.210;2023-12-29T01:11:35;1.48;;;1.20;;
32138;SDS011;18644;48.700;9.210;2023-12-29T01:14:02;2.30;;;1.33;;
32138;SDS011;18644;48.700;9.210;2023-12-29T01:16:29;1.35;;;1.25;;
32138;SDS011;18644;48.700;9.210;2023-12-29T01:18:55;1.88;;;1.58;;
32138;SDS011;18644;48.700;9.210;2023-12-29T01:21:22;1.55;;;1.20;;
32138;SDS011;18644;48.700;9.210;2023-12-29T01:23:49;1.30;;;1.20;;
32138;SDS011;18644;48.700;9.210;2023-12-29T01:26:16;1.40;;;1.27;;
32138;SDS011;18644;48.700;9.210;2023-12-29T01:28:44;1.83;;;1.60;;
32138;SDS011;18644;48.700;9.210;2023-12-29T01:31:11;4.90;;;1.65;;
32138;SDS011;18644;48.700;9.210;2023-12-29T01:33:38;2.17;;;1.50;;
32138;SDS011;18644;48.700;9.210;2023-12-29T01:36:05;3.60;;;1.85;;
32138;SDS011;18644;48.700;9.210;2023-12-29T01:38:32;1.70;;;1.58;;
32138;SDS011;18644;48.700;9.210;2023-12-29T01:40:59;1.83;;;1.52;;
32138;SDS011;18644;48.700;9.210;2023-12-29T01:43:26;1.63;;;1.33;;
32138;SDS011;18644;48.700;9.210;2023-12-29T01:45:54;2.42;;;1.52;;
32138;SDS011;18644;48.700;9.210;2023-12-29T01:48:21;1.48;;;1.38;;
32138;SDS011;18644;48.700;9.210;2023-12-29T01:50:49;2.30;;;1.67;;
32138;SDS011;18644;48.700;9.210;2023-12-29T01:53:17;1.67;;;1.33;;
32138;SDS011;18644;48.700;9.210;2023-12-29T01:55:44;2.20;;;1.70;;
32138;SDS011;18644;48.700;9.210;2023-12-29T01:58:12;2.20;;;1.77;;
32138;SDS011;18644;48.700;9.210;2023-12-29T02:00:39;1.92;;;1.58;;
32138;SDS011;18644;48.700;9.210;2023-12-29T02:03:07;2.63;;;1.77;;
32138;SDS011;18644;48.700;9.210;2023-12-29T02:05:34;1.88;;;1.60;;
32138;SDS011;18644;48.700;9.210;2023-12-29T02:08:02;1.90;;;1.70;;
32138;SDS011;18644;48.700;9.210;2023-12-29T02:10:30;1.73;;;1.30;;
32138;SDS011;18644;48.700;9.210;2023-12-29T02:12:58;2.30;;;1.85;;
32138;SDS011;18644;48.700;9.210;2023-12-29T02:15:25;2.13;;;1.60;;
32138;SDS011;18644;48.700;9.210;2023-12-29T02:17:52;1.98;;;1.50;;
32138;SDS011;18644;48.700;9.210;2023-12-29T02:20:29;2.08;;;1.67;;
32138;SDS011;18644;48.700;9.210;2023-12-29T02:22:56;2.00;;;1.60;;
32138;SDS011;18644;48.700;9.210;2023-12-29T02:25:24;1.52;;;1.42;;
32138;SDS011;18644;48.700;9.210;2023-12-29T02:27:52;1.50;;;1.20;;
32138;SDS011;18644;48.700;9.210;2023-12-29T02:30:27;2.60;;;1.83;;
32138;SDS011;18644;48.700;9.210;2023-12-29T02:33:01;3.00;;;2.00;;
32138;SDS011;18644;48.700;9.210;2023-12-29T02:35:32;2.33;;;1.60;;
32138;SDS011;18644;48.700;9.210;2023-12-29T02:38:01;2.42;;;1.73;;
32138;SDS011;18644;48.700;9.210;2023-12-29T02:40:30;1.73;;;1.60;;
32138;SDS011;18644;48.700;9.210;2023-12-29T02:42:57;1.75;;;1.60;;
32138;SDS011;18644;48.700;9.210;2023-12-29T02:45:24;2.28;;;1.80;;
32138;SDS011;18644;48.700;9.210;2023-12-29T02:47:51;2.85;;;1.77;;
32138;SDS011;18644;48.700;9.210;2023-12-29T02:50:17;2.28;;;1.60;;
32138;SDS011;18644;48.700;9.210;2023-12-29T02:52:45;2.33;;;2.00;;
32138;SDS011;18644;48.700;9.210;2023-12-29T02:55:11;3.58;;;1.90;;
32138;SDS011;18644;48.700;9.210;2023-12-29T02:57:40;2.28;;;1.90;;
32138;SDS011;18644;48.700;9.210;2023-12-29T03:00:07;3.55;;;1.90;;
32138;SDS011;18644;48.700;9.210;2023-12-29T03:02:34;1.92;;;1.83;;
32138;SDS011;18644;48.700;9.210;2023-12-29T03:05:01;2.03;;;1.83;;
32138;SDS011;18644;48.700;9.210;2023-12-29T03:07:29;2.85;;;1.63;;
32138;SDS011;18644;48.700;9.210;2023-12-29T03:09:56;1.88;;;1.77;;
32138;SDS011;18644;48.700;9.210;2023-12-29T03:12:23;3.70;;;1.80;;
32138;SDS011;18644;48.700;9.210;2023-12-29T03:14:51;2.17;;;1.80;;
32138;SDS011;18644;48.700;9.210;2023-12-29T03:17:18;4.55;;;1.80;;
32138;SDS011;18644;48.700;9.210;2023-12-29T03:19:45;2.33;;;1.75;;
32138;SDS011;18644;48.700;9.210;2023-12-29T03:22:11;1.75;;;1.60;;
32138;SDS011;18644;48.700;9.210;2023-12-29T03:24:40;2.38;;;1.83;;
32138;SDS011;18644;48.700;9.210;2023-12-29T03:27:07;3.03;;;1.58;;
32138;SDS011;18644;48.700;9.210;2023-12-29T03:29:34;2.45;;;1.98;;
32138;SDS011;18644;48.700;9.210;2023-12-29T03:32:02;3.17;;;1.60;;
32138;SDS011;18644;48.700;9.210;2023-12-29T03:34:32;2.15;;;1.73;;
32138;SDS011;18644;48.700;9.210;2023-12-29T03:36:59;2.97;;;1.80;;
32138;SDS011;18644;48.700;9.210;2023-12-29T03:39:25;2.65;;;1.80;;
32138;SDS011;18644;48.700;9.210;2023-12-29T03:41:52;2.10;;;1.63;;
32138;SDS011;18644;48.700;9.210;2023-12-29T03:44:19;1.58;;;1.40;;
32138;SDS011;18644;48.700;9.210;2023-12-29T03:46:46;1.92;;;1.67;;
32138;SDS011;18644;48.700;9.210;2023-12-29T03:49:16;2.03;;;1.60;;
32138;SDS011;18644;48.700;9.210;2023-12-29T03:51:42;2.25;;;1.45;;
32138;SDS011;18644;48.700;9.210;2023-12-29T03:54:09;1.50;;;1.40;;
32138;SDS011;18644;48.700;9.210;2023-12-29T03:56:36;2.10;;;1.80;;
32138;SDS011;18644;48.700;9.210;2023-12-29T03:59:03;1.95;;;1.73;;
32138;SDS011;18644;48.700;9.210;2023-12-29T04:01:32;2.90;;;1.38;;
32138;SDS011;18644;48.700;9.210;2023-12-29T04:03:59;2.80;;;1.67;;
32138;SDS011;18644;48.700;9.210;2023-12-29T04:06:27;1.58;;;1.45;;
32138;SDS011;18644;48.700;9.210;2023-12-29T04:08:54;1.77;;;1.40;;
32138;SDS011;18644;48.700;9.210;2023-12-29T04:11:21;1.52;;;1.42;;
32138;SDS011;18644;48.700;9.210;2023-12-29T04:13:48;2.47;;;1.48;;
32138;SDS011;18644;48.700;9.210;2023-12-29T04:16:15;1.88;;;1.58;;
32138;SDS011;18644;48.700;9.210;2023-12-29T04:18:43;1.73;;;1.40;;
32138;SDS011;18644;48.700;9.210;2023-12-29T04:21:13;1.98;;;1.58;;
32138;SDS011;18644;48.700;9.210;2023-12-29T04:23:41;1.92;;;1.73;;
32138;SDS011;18644;48.700;9.210;2023-12-29T04:26:08;1.40;;;1.20;;
32138;SDS011;18644;48.700;9.210;2023-12-29T04:28:35;1.80;;;1.60;;
32138;SDS011;18644;48.700;9.210;2023-12-29T04:31:02;1.88;;;1.33;;
32138;SDS011;18644;48.700;9.210;2023-12-29T04:33:29;2.90;;;1.40;;
32138;SDS011;18644;48.700;9.210;2023-12-29T04:35:56;2.28;;;1.63;;
32138;SDS011;18644;48.700;9.210;2023-12-29T04:38:23;1.95;;;1.42;;
32138;SDS011;18644;48.700;9.210;2023-12-29T04:40:51;1.77;;;1.50;;
32138;SDS011;18644;48.700;9.210;2023-12-29T04:43:18;1.67;;;1.52;;
32138;SDS011;18644;48.700;9.210;2023-12-29T04:45:45;2.08;;;1.63;;
32138;SDS011;18644;48.700;9.210;2023-12-29T04:48:12;1.70;;;1.48;;
32138;SDS011;18644;48.700;9.210;2023-12-29T04:50:39;1.55;;;1.25;;
32138;SDS011;18644;48.700;9.210;2023-12-29T04:53:05;1.33;;;1.23;;
32138;SDS011;18644;48.700;9.210;2023-12-29T04:55:32;1.40;;;1.30;;
32138;SDS011;18644;48.700;9.210;2023-12-29T04:58:01;1.48;;;1.38;;
32138;SDS011;18644;48.700;9.210;2023-12-29T05:00:27;2.10;;;1.42;;
32138;SDS011;18644;48.700;9.210;2023-12-29T05:02:54;1.88;;;1.60;;
32138;SDS011;18644;48.700;9.210;2023-12-29T05:05:21;1.73;;;1.45;;
32138;SDS011;18644;48.700;9.210;2023-12-29T05:07:48;1.67;;;1.48;;
32138;SDS011;18644;48.700;9.210;2023-12-29T05:10:15;1.40;;;1.30;;
32138;SDS011;18644;48.700;9.210;2023-12-29T05:12:42;2.40;;;1.40;;
32138;SDS011;18644;48.700;9.210;2023-12-29T05:15:10;1.35;;;1.25;;
32138;SDS011;18644;48.700;9.210;2023-12-29T05:17:37;1.83;;;1.48;;
32138;SDS011;18644;48.700;9.210;2023-12-29T05:20:06;2.30;;;1.67;;
32138;SDS011;18644;48.700;9.210;2023-12-29T05:22:34;1.50;;;1.20;;
32138;SDS011;18644;48.700;9.210;2023-12-29T05:25:01;1.33;;;1.23;;
32138;SDS011;18644;48.700;9.210;2023-12-29T05:27:29;2.13;;;1.70;;
32138;SDS011;18644;48.700;9.210;2023-12-29T05:29:56;1.60;;;1.48;;
32138;SDS011;18644;48.700;9.210;2023-12-29T05:32:24;2.38;;;1.40;;
32138;SDS011;18644;48.700;9.210;2023-12-29T05:34:51;1.42;;;1.33;;
32138;SDS011;18644;48.700;9.210;2023-12-29T05:37:18;1.30;;;1.20;;
32138;SDS011;18644;48.700;9.210;2023-12-29T05:39:45;1.30;;;1.20;;
32138;SDS011;18644;48.700;9.210;2023-12-29T05:42:12;1.80;;;1.20;;
32138;SDS011;18644;48.700;9.210;2023-12-29T05:44:39;1.63;;;1.35;;
32138;SDS011;18644;48.700;9.210;2023-12-29T05:47:05;1.85;;;1.50;;
32138;SDS011;18644;48.700;9.210;2023-12-29T05:49:34;2.60;;;1.77;;
32138;SDS011;18644;48.700;9.210;2023-12-29T05:52:04;1.77;;;1.63;;
32138;SDS011;18644;48.700;9.210;2023-12-29T05:54:31;2.00;;;1.80;;
32138;SDS011;18644;48.700;9.210;2023-12-29T05:56:58;2.42;;;1.60;;
32138;SDS011;18644;48.700;9.210;2023-12-29T05:59:25;1.40;;;1.30;;
32138;SDS011;18644;48.700;9.210;2023-12-29T06:01:52;3.50;;;1.60;;
32138;SDS011;18644;48.700;9.210;2023-12-29T06:04:19;1.38;;;1.27;;
32138;SDS011;18644;48.700;9.210;2023-12-29T06:06:47;1.58;;;1.30;;
32138;SDS011;18644;48.700;9.210;2023-12-29T06:09:14;2.70;;;1.58;;
32138;SDS011;18644;48.700;9.210;2023-12-29T06:11:41;1.65;;;1.55;;
32138;SDS011;18644;48.700;9.210;2023-12-29T06:14:07;1.23;;;1.13;;
32138;SDS011;18644;48.700;9.210;2023-12-29T06:16:35;2.08;;;1.50;;
32138;SDS011;18644;48.700;9.210;2023-12-29T06:19:02;2.25;;;1.58;;
32138;SDS011;18644;48.700;9.210;2023-12-29T06:21:28;1.25;;;1.10;;
32138;SDS011;18644;48.700;9.210;2023-12-29T06:23:57;2.08;;;1.30;;
32138;SDS011;18644;48.700;9.210;2023-12-29T06:26:23;2.42;;;1.25;;
32138;SDS011;18644;48.700;9.210;2023-12-29T06:28:50;1.20;;;1.10;;
32138;SDS011;18644;48.700;9.210;2023-12-29T06:31:17;2.00;;;1.48;;
32138;SDS011;18644;48.700;9.210;2023-12-29T06:33:44;1.65;;;1.20;;
32138;SDS011;18644;48.700;9.210;2023-12-29T06:36:11;3.33;;;1.23;;
32138;SDS011;18644;48.700;9.210;2023-12-29T06:38:38;1.35;;;1.15;;
32138;SDS011;18644;48.700;9.210;2023-12-29T06:41:07;2.20;;;1.77;;
32138;SDS011;18644;48.700;9.210;2023-12-29T06:43:34;1.65;;;1.55;;
32138;SDS011;18644;48.700;9.210;2023-12-29T06:46:01;2.08;;;1.50;;
32138;SDS011;18644;48.700;9.210;2023-12-29T06:48:29;1.40;;;1.30;;
32138;SDS011;18644;48.700;9.210;2023-12-29T06:50:56;1.83;;;1.52;;
32138;SDS011;18644;48.700;9.210;2023-12-29T06:53:22;1.40;;;1.30;;
32138;SDS011;18644;48.700;9.210;2023-12-29T06:55:49;2.35;;;1.70;;
32138;SDS011;18644;48.700;9.210;2023-12-29T06:58:17;1.90;;;1.42;;
32138;SDS011;18644;48.700;9.210;2023-12-29T07:00:44;1.50;;;1.20;;
32138;SDS011;18644;48.700;9.210;2023-12-29T07:03:12;1.40;;;1.30;;
32138;SDS011;18644;48.700;9.210;2023-12-29T07:05:40;1.30;;;1.20;;
32138;SDS011;18644;48.700;9.210;2023-12-29T07:08:07;3.33;;;1.23;;
32138;SDS011;18644;48.700;9.210;2023-12-29T07:10:34;1.50;;;1.27;;
32138;SDS011;18644;48.700;9.210;2023-12-29T07:13:01;1.20;;;1.10;;
32138;SDS011;18644;48.700;9.210;2023-12-29T07:15:29;1.65;;;1.20;;
32138;SDS011;18644;48.700;9.210;2023-12-29T07:17:56;1.95;;;1.38;;
32138;SDS011;18644;48.700;9.210;2023-12-29T07:20:22;1.73;;;1.60;;
32138;SDS011;18644;48.700;9.210;2023-12-29T07:22:49;1.30;;;1.20;;
32138;SDS011;18644;48.700;9.210;2023-12-29T07:25:16;1.92;;;1.33;;
32138;SDS011;18644;48.700;9.210;2023-12-29T07:27:43;1.05;;;1.00;;
32138;SDS011;18644;48.700;9.210;2023-12-29T07:30:10;1.58;;;1.42;;
32138;SDS011;18644;48.700;9.210;2023-12-29T07:32:40;1.58;;;1.48;;
32138;SDS011;18644;48.700;9.210;2023-12-29T07:35:07;1.42;;;1.30;;
32138;SDS011;18644;48.700;9.210;2023-12-29T07:37:34;1.73;;;1.27;;
32138;SDS011;18644;48.700;9.210;2023-12-29T07:40:01;1.17;;;1.08;;
32138;SDS011;18644;48.700;9.210;2023-12-29T07:42:29;1.27;;;1.15;;
32138;SDS011;18644;48.700;9.210;2023-12-29T07:44:57;1.48;;;1.33;;
32138;SDS011;18644;48.700;9.210;2023-12-29T07:47:24;1.30;;;1.20;;
32138;SDS011;18644;48.700;9.210;2023-12-29T07:49:52;2.35;;;1.30;;
32138;SDS011;18644;48.700;9.210;2023-12-29T07:52:19;3.53;;;1.55;;
32138;SDS011;18644;48.700;9.210;2023-12-29T07:54:46;1.55;;;1.30;;
32138;SDS011;18644;48.700;9.210;2023-12-29T07:57:13;1.30;;;1.20;;
32138;SDS011;18644;48.700;9.210;2023-12-29T07:59:40;1.30;;;1.20;;
32138;SDS011;18644;48.700;9.210;2023-12-29T08:02:07;1.42;;;1.33;;
32138;SDS011;18644;48.700;9.210;2023-12-29T08:04:34;1.23;;;1.10;;
32138;SDS011;18644;48.700;9.210;2023-12-29T08:07:03;1.33;;;1.15;;
32138;SDS011;18644;48.700;9.210;2023-12-29T08:09:30;1.50;;;1.20;;
32138;SDS011;18644;48.700;9.210;2023-12-29T08:11:58;2.72;;;1.55;;
32138;SDS011;18644;48.700;9.210;2023-12-29T08:14:25;1.52;;;1.27;;
32138;SDS011;18644;48.700;9.210;2023-12-29T08:16:53;1.20;;;1.10;;
32138;SDS011;18644;48.700;9.210;2023-12-29T08:19:22;2.72;;;1.38;;
32138;SDS011;18644;48.700;9.210;2023-12-29T08:21:48;1.30;;;1.20;;
32138;SDS011;18644;48.700;9.210;2023-12-29T08:24:18;2.03;;;1.23;;
32138;SDS011;18644;48.700;9.210;2023-12-29T08:26:45;1.75;;;1.27;;
32138;SDS011;18644;48.700;9.210;2023-12-29T08:29:13;1.60;;;1.40;;
32138;SDS011;18644;48.700;9.210;2023-12-29T08:31:41;3.03;;;1.20;;
32138;SDS011;18644;48.700;9.210;2023-12-29T08:34:08;1.67;;;1.30;;
32138;SDS011;18644;48.700;9.210;2023-12-29T08:36:35;1.83;;;1.27;;
32138;SDS011;18644;48.700;9.210;2023-12-29T08:39:02;3.25;;;1.35;;
32138;SDS011;18644;48.700;9.210;2023-12-29T08:41:30;1.40;;;1.15;;
32138;SDS011;18644;48.700;9.210;2023-12-29T08:43:57;1.50;;;1.40;;
32138;SDS011;18644;48.700;9.210;2023-12-29T08:46:24;1.75;;;1.15;;
32138;SDS011;18644;48.700;9.210;2023-12-29T08:48:51;1.17;;;1.08;;
32138;SDS011;18644;48.700;9.210;2023-12-29T08:51:17;1.30;;;1.20;;
32138;SDS011;18644;48.700;9.210;2023-12-29T08:53:45;1.67;;;1.42;;
32138;SDS011;18644;48.700;9.210;2023-12-29T08:56:11;1.17;;;1.00;;
32138;SDS011;18644;48.700;9.210;2023-12-29T08:58:40;1.30;;;1.20;;
32138;SDS011;18644;48.700;9.210;2023-12-29T09:01:07;1.15;;;1.05;;
32138;SDS011;18644;48.700;9.210;2023-12-29T09:03:34;1.80;;;1.15;;
32138;SDS011;18644;48.700;9.210;2023-12-29T09:06:01;4.60;;;1.10;;
32138;SDS011;18644;48.700;9.210;2023-12-29T09:08:28;1.58;;;1.05;;
32138;SDS011;18644;48.700;9.210;2023-12-29T09:10:55;1.35;;;1.00;;
32138;SDS011;18644;48.700;9.210;2023-12-29T09:13:22;1.30;;;1.20;;
32138;SDS011;18644;48.700;9.210;2023-12-29T09:15:52;1.65;;;1.30;;
32138;SDS011;18644;48.700;9.210;2023-12-29T09:18:21;1.10;;;1.00;;
32138;SDS011;18644;48.700;9.210;2023-12-29T09:20:47;0.80;;;0.80;;
32138;SDS011;18644;48.700;9.210;2023-12-29T09:23:14;1.00;;;0.90;;
32138;SDS011;18644;48.700;9.210;2023-12-29T09:25:41;1.25;;;1.10;;
32138;SDS011;18644;48.700;9.210;2023-12-29T09:28:08;1.23;;;0.95;;
32138;SDS011;18644;48.700;9.210;2023-12-29T09:30:35;1.23;;;1.13;;
32138;SDS011;18644;48.700;9.210;2023-12-29T09:33:03;1.42;;;1.17;;
32138;SDS011;18644;48.700;9.210;2023-12-29T09:35:31;1.75;;;1.20;;
32138;SDS011;18644;48.700;9.210;2023-12-29T09:37:57;1.08;;;0.98;;
32138;SDS011;18644;48.700;9.210;2023-12-29T09:40:25;3.90;;;1.05;;
32138;SDS011;18644;48.700;9.210;2023-12-29T09:42:52;2.45;;;1.20;;
32138;SDS011;18644;48.700;9.210;2023-12-29T09:45:20;1.17;;;1.00;;
32138;SDS011;18644;48.700;9.210;2023-12-29T09:47:51;2.33;;;0.93;;
32138;SDS011;18644;48.700;9.210;2023-12-29T09:50:20;1.13;;;1.10;;
32138;SDS011;18644;48.700;9.210;2023-12-29T09:52:48;1.55;;;1.17;;
32138;SDS011;18644;48.700;9.210;2023-12-29T09:55:15;2.17;;;1.05;;
32138;SDS011;18644;48.700;9.210;2023-12-29T09:57:43;2.03;;;1.17;;
32138;SDS011;18644;48.700;9.210;2023-12-29T10:00:13;0.80;;;0.80;;
32138;SDS011;18644;48.700;9.210;2023-12-29T10:02:42;0.90;;;0.90;;
32138;SDS011;18644;48.700;9.210;2023-12-29T10:05:10;1.40;;;1.30;;
32138;SDS011;18644;48.700;9.210;2023-12-29T10:07:38;2.60;;;1.10;;
32138;SDS011;18644;48.700;9.210;2023-12-29T10:10:06;2.60;;;0.98;;
32138;SDS011;18644;48.700;9.210;2023-12-29T10:12:38;1.20;;;1.10;;
32138;SDS011;18644;48.700;9.210;2023-12-29T10:15:06;1.05;;;0.90;;
32138;SDS011;18644;48.700;9.210;2023-12-29T10:17:43;1.17;;;0.88;;
32138;SDS011;18644;48.700;9.210;2023-12-29T10:20:21;1.00;;;0.90;;
32138;SDS011;18644;48.700;9.210;2023-12-29T10:23:05;1.35;;;1.10;;
32138;SDS011;18644;48.700;9.210;2023-12-29T10:25:38;1.75;;;1.05;;
32138;SDS011;18644;48.700;9.210;2023-12-29T10:28:05;1.05;;;0.90;;
32138;SDS011;18644;48.700;9.210;2023-12-29T10:30:32;0.95;;;0.95;;
32138;SDS011;18644;48.700;9.210;2023-12-29T10:32:59;1.38;;;0.90;;
32138;SDS011;18644;48.700;9.210;2023-12-29T10:35:28;1.05;;;0.77;;
32138;SDS011;18644;48.700;9.210;2023-12-29T10:38:04;1.23;;;1.08;;
32138;SDS011;18644;48.700;9.210;2023-12-29T10:40:35;2.72;;;1.05;;
32138;SDS011;18644;48.700;9.210;2023-12-29T10:43:02;2.38;;;1.13;;
32138;SDS011;18644;48.700;9.210;2023-12-29T10:45:31;1.17;;;0.98;;
32138;SDS011;18644;48.700;9.210;2023-12-29T10:47:59;1.02;;;1.02;;
32138;SDS011;18644;48.700;9.210;2023-12-29T10:50:27;1.13;;;1.02;;
32138;SDS011;18644;48.700;9.210;2023-12-29T10:53:00;1.00;;;0.90;;
32138;SDS011;18644;48.700;9.210;2023-12-29T10:55:38;1.30;;;1.20;;
32138;SDS011;18644;48.700;9.210;2023-12-29T10:58:05;1.42;;;1.20;;
32138;SDS011;18644;48.700;9.210;2023-12-29T11:00:32;1.15;;;0.90;;
32138;SDS011;18644;48.700;9.210;2023-12-29T11:02:59;1.20;;;0.88;;
32138;SDS011;18644;48.700;9.210;2023-12-29T11:05:26;0.90;;;0.90;;
32138;SDS011;18644;48.700;9.210;2023-12-29T11:07:54;0.95;;;0.82;;
32138;SDS011;18644;48.700;9.210;2023-12-29T11:10:25;0.90;;;0.80;;
32138;SDS011;18644;48.700;9.210;2023-12-29T11:12:52;0.77;;;0.77;;
32138;SDS011;18644;48.700;9.210;2023-12-29T11:15:20;0.98;;;0.90;;
32138;SDS011;18644;48.700;9.210;2023-12-29T11:17:49;0.90;;;0.90;;
32138;SDS011;18644;48.700;9.210;2023-12-29T11:20:17;0.73;;;0.73;;
32138;SDS011;18644;48.700;9.210;2023-12-29T11:22:45;1.10;;;1.00;;
32138;SDS011;18644;48.700;9.210;2023-12-29T11:25:14;0.82;;;0.80;;
32138;SDS011;18644;48.700;9.210;2023-12-29T11:27:42;1.00;;;0.90;;
32138;SDS011;18644;48.700;9.210;2023-12-29T11:30:10;1.20;;;0.60;;
32138;SDS011;18644;48.700;9.210;2023-12-29T11:32:41;1.92;;;0.85;;
32138;SDS011;18644;48.700;9.210;2023-12-29T11:35:17;0.95;;;0.82;;
32138;SDS011;18644;48.700;9.210;2023-12-29T11:37:52;0.70;;;0.70;;
32138;SDS011;18644;48.700;9.210;2023-12-29T11:40:41;0.90;;;0.90;;
32138;SDS011;18644;48.700;9.210;2023-12-29T11:43:15;0.95;;;0.77;;
32138;SDS011;18644;48.700;9.210;2023-12-29T11:45:44;0.80;;;0.80;;
32138;SDS011;18644;48.700;9.210;2023-12-29T11:48:10;0.70;;;0.68;;
32138;SDS011;18644;48.700;9.210;2023-12-29T11:50:38;0.90;;;0.80;;
32138;SDS011;18644;48.700;9.210;2023-12-29T11:53:06;0.80;;;0.80;;
32138;SDS011;18644;48.700;9.210;2023-12-29T11:55:34;0.77;;;0.77;;
32138;SDS011;18644;48.700;9.210;2023-12-29T11:58:03;1.48;;;0.82;;
32138;SDS011;18644;48.700;9.210;2023-12-29T12:00:42;0.80;;;0.80;;
32138;SDS011;18644;48.700;9.210;2023-12-29T12:03:22;1.10;;;1.00;;
32138;SDS011;18644;48.700;9.210;2023-12-29T12:05:51;2.35;;;0.80;;
32138;SDS011;18644;48.700;9.210;2023-12-29T12:08:29;0.70;;;0.60;;
32138;SDS011;18644;48.700;9.210;2023-12-29T12:10:58;1.08;;;0.77;;
32138;SDS011;18644;48.700;9.210;2023-12-29T12:14:09;1.17;;;0.70;;
32138;SDS011;18644;48.700;9.210;2023-12-29T12:16:48;0.70;;;0.70;;
32138;SDS011;18644;48.700;9.210;2023-12-29T12:19:18;0.77;;;0.77;;
32138;SDS011;18644;48.700;9.210;2023-12-29T12:21:49;0.75;;;0.65;;
32138;SDS011;18644;48.700;9.210;2023-12-29T12:24:20;1.50;;;0.85;;
32138;SDS011;18644;48.700;9.210;2023-12-29T12:26:46;0.90;;;0.88;;
32138;SDS011;18644;48.700;9.210;2023-12-29T12:29:14;2.50;;;0.80;;
32138;SDS011;18644;48.700;9.210;2023-12-29T12:31:55;0.65;;;0.65;;
32138;SDS011;18644;48.700;9.210;2023-12-29T12:34:23;0.90;;;0.82;;
32138;SDS011;18644;48.700;9.210;2023-12-29T12:36:51;0.90;;;0.90;;
32138;SDS011;18644;48.700;9.210;2023-12-29T12:39:21;0.80;;;0.80;;
32138;SDS011;18644;48.700;9.210;2023-12-29T12:41:48;0.95;;;0.70;;
32138;SDS011;18644;48.700;9.210;2023-12-29T12:44:15;0.93;;;0.90;;
32138;SDS011;18644;48.700;9.210;2023-12-29T12:46:44;1.13;;;1.00;;
32138;SDS011;18644;48.700;9.210;2023-12-29T12:49:19;0.93;;;0.73;;
32138;SDS011;18644;48.700;9.210;2023-12-29T12:51:46;0.85;;;0.85;;
32138;SDS011;18644;48.700;9.210;2023-12-29T12:54:16;0.60;;;0.60;;
32138;SDS011;18644;48.700;9.210;2023-12-29T12:56:45;0.80;;;0.80;;
32138;SDS011;18644;48.700;9.210;2023-12-29T12:59:12;0.70;;;0.63;;
32138;SDS011;18644;48.700;9.210;2023-12-29T13:01:39;0.60;;;0.60;;
32138;SDS011;18644;48.700;9.210;2023-12-29T13:04:07;0.80;;;0.65;;
32138;SDS011;18644;48.700;9.210;2023-12-29T13:06:40;1.10;;;0.80;;
32138;SDS011;18644;48.700;9.210;2023-12-29T13:09:09;0.70;;;0.70;;
32138;SDS011;18644;48.700;9.210;2023-12-29T13:11:37;0.68;;;0.68;;
32138;SDS011;18644;48.700;9.210;2023-12-29T13:14:05;0.60;;;0.60;;
32138;SDS011;18644;48.700;9.210;2023-12-29T13:16:32;0.77;;;0.77;;
32138;SDS011;18644;48.700;9.210;2023-12-29T13:19:17;0.98;;;0.90;;
32138;SDS011;18644;48.700;9.210;2023-12-29T13:21:47;1.55;;;1.00;;
32138;SDS011;18644;48.700;9.210;2023-12-29T13:24:15;0.85;;;0.82;;
32138;SDS011;18644;48.700;9.210;2023-12-29T13:26:43;0.77;;;0.60;;
32138;SDS011;18644;48.700;9.210;2023-12-29T13:29:12;0.73;;;0.73;;
32138;SDS011;18644;48.700;9.210;2023-12-29T13:31:40;1.00;;;0.90;;
32138;SDS011;18644;48.700;9.210;2023-12-29T13:34:11;1.40;;;0.93;;
32138;SDS011;18644;48.700;9.210;2023-12-29T13:36:41;0.57;;;0.57;;
32138;SDS011;18644;48.700;9.210;2023-12-29T13:39:22;1.05;;;0.80;;
32138;SDS011;18644;48.700;9.210;2023-12-29T13:41:56;0.70;;;0.70;;
32138;SDS011;18644;48.700;9.210;2023-12-29T13:44:25;0.85;;;0.70;;
32138;SDS011;18644;48.700;9.210;2023-12-29T13:46:53;0.60;;;0.60;;
32138;SDS011;18644;48.700;9.210;2023-12-29T13:49:22;1.23;;;1.00;;
32138;SDS011;18644;48.700;9.210;2023-12-29T13:51:50;1.08;;;0.85;;
32138;SDS011;18644;48.700;9.210;2023-12-29T13:54:18;1.48;;;0.88;;
32138;SDS011;18644;48.700;9.210;2023-12-29T13:56:51;0.77;;;0.77;;
32138;SDS011;18644;48.700;9.210;2023-12-29T13:59:18;0.70;;;0.70;;
32138;SDS011;18644;48.700;9.210;2023-12-29T14:01:54;0.80;;;0.68;;
32138;SDS011;18644;48.700;9.210;2023-12-29T14:04:24;0.70;;;0.70;;
32138;SDS011;18644;48.700;9.210;2023-12-29T14:06:53;0.63;;;0.63;;
32138;SDS011;18644;48.700;9.210;2023-12-29T14:09:26;1.50;;;1.00;;
32138;SDS011;18644;48.700;9.210;2023-12-29T14:11:53;1.35;;;0.88;;
32138;SDS011;18644;48.700;9.210;2023-12-29T14:14:23;1.48;;;1.02;;
32138;SDS011;18644;48.700;9.210;2023-12-29T14:16:50;1.42;;;0.80;;
32138;SDS011;18644;48.700;9.210;2023-12-29T14:19:18;0.90;;;0.90;;
32138;SDS011;18644;48.700;9.210;2023-12-29T14:21:45;1.05;;;0.80;;
32138;SDS011;18644;48.700;9.210;2023-12-29T14:24:17;0.82;;;0.82;;
32138;SDS011;18644;48.700;9.210;2023-12-29T14:26:53;1.00;;;0.82;;
32138;SDS011;18644;48.700;9.210;2023-12-29T14:29:21;1.50;;;1.00;;
32138;SDS011;18644;48.700;9.210;2023-12-29T14:31:49;0.82;;;0.82;;
32138;SDS011;18644;48.700;9.210;2023-12-29T14:34:17;1.10;;;1.00;;
32138;SDS011;18644;48.700;9.210;2023-12-29T14:36:45;0.73;;;0.68;;
32138;SDS011;18644;48.700;9.210;2023-12-29T14:39:12;1.70;;;0.90;;
32138;SDS011;18644;48.700;9.210;2023-12-29T14:41:41;0.80;;;0.80;;
32138;SDS011;18644;48.700;9.210;2023-12-29T14:44:10;1.08;;;0.90;;
32138;SDS011;18644;48.700;9.210;2023-12-29T14:46:37;0.95;;;0.80;;
32138;SDS011;18644;48.700;9.210;2023-12-29T14:49:05;1.08;;;0.80;;
32138;SDS011;18644;48.700;9.210;2023-12-29T14:51:32;1.05;;;0.90;;
32138;SDS011;18644;48.700;9.210;2023-12-29T14:53:59;0.80;;;0.80;;